Terminal Aerodrome Forecast
Issued by NWS Tuscon, AZ

Home | Current Version | Previous Version | Text Only | Print | Product List | Glossary On
Versions: 1 2 3 4 5 6 7 8 9 10 11 12
253
FTUS45 KTWC 281125
TAFTUS
TAF
KTUS 281125Z 2812/2912 14006KT P6SM SKC
     FM281700 21009KT P6SM SKC
     FM282100 23013G20KT P6SM SKC
     FM290300 27008KT P6SM SKC
     FM290800 14006KT P6SM SKC=

USA.gov is the U.S. government's official web portal to all federal, state and local government web resources and services.